createdAt,value
2023-04-29T00:01:11.294Z,61.08
2023-04-29T00:03:13.571Z,60.71
2023-04-29T00:05:16.161Z,60.59
2023-04-29T00:07:18.306Z,61.03
2023-04-29T00:09:21.339Z,60.77
2023-04-29T00:11:23.303Z,60.54
2023-04-29T00:13:26.242Z,60.55
2023-04-29T00:15:28.333Z,60.89
2023-04-29T00:17:30.544Z,60.82
2023-04-29T00:19:35.572Z,60.90
2023-04-29T00:21:37.753Z,61.09
2023-04-29T00:23:39.790Z,60.99
2023-04-29T00:25:41.801Z,60.74
2023-04-29T00:27:43.713Z,60.86
2023-04-29T00:29:45.699Z,60.72
2023-04-29T00:31:48.576Z,60.77
2023-04-29T00:33:50.478Z,60.78
2023-04-29T00:35:52.584Z,60.83
2023-04-29T00:37:54.767Z,61.47
2023-04-29T00:39:56.752Z,60.96
2023-04-29T00:42:01.276Z,61.70
2023-04-29T00:44:03.290Z,60.97
2023-04-29T00:46:05.397Z,61.26
2023-04-29T00:48:08.035Z,61.45
2023-04-29T00:50:10.394Z,61.45
2023-04-29T00:52:14.261Z,61.52
2023-04-29T00:54:16.967Z,61.74
2023-04-29T00:56:21.229Z,61.43
2023-04-29T00:58:30.675Z,61.85
2023-04-29T01:00:33.620Z,61.33
2023-04-29T01:02:35.757Z,61.39
2023-04-29T01:04:37.895Z,61.73
2023-04-29T01:06:54.888Z,62.23
2023-04-29T01:09:19.368Z,62.15
2023-04-29T01:11:26.330Z,62.28
2023-04-29T01:13:38.411Z,62.26
2023-04-29T01:15:52.706Z,61.94
2023-04-29T01:18:06.556Z,61.95
2023-04-29T01:20:10.594Z,61.99
2023-04-29T01:22:14.662Z,62.27
2023-04-29T01:24:16.856Z,62.01
2023-04-29T01:26:19.233Z,61.97
2023-04-29T01:28:27.274Z,62.28
2023-04-29T01:30:47.287Z,62.50
2023-04-29T01:33:04.767Z,62.64
2023-04-29T01:35:23.361Z,62.48
2023-04-29T01:37:35.483Z,62.78
2023-04-29T01:39:48.431Z,63.13
2023-04-29T01:42:03.342Z,63.08
2023-04-29T01:44:08.452Z,63.29
2023-04-29T01:46:11.987Z,62.97
2023-04-29T01:48:14.638Z,63.53
2023-04-29T01:50:16.736Z,63.77
2023-04-29T01:52:18.709Z,63.96
2023-04-29T01:54:22.499Z,63.83
2023-04-29T01:56:24.404Z,64.02
2023-04-29T01:58:26.412Z,63.97
2023-04-29T02:00:28.420Z,63.90
2023-04-29T02:02:30.657Z,64.03
2023-04-29T02:04:34.680Z,63.93
2023-04-29T02:06:36.630Z,63.58
2023-04-29T02:08:38.536Z,63.74
2023-04-29T02:10:40.570Z,63.87
2023-04-29T02:12:42.583Z,63.79
2023-04-29T02:14:44.485Z,64.23
2023-04-29T02:16:46.482Z,63.56
2023-04-29T02:18:48.413Z,63.68
2023-04-29T02:20:51.872Z,63.82
2023-04-29T02:22:53.741Z,63.54
2023-04-29T02:24:55.736Z,63.85
2023-04-29T02:26:57.662Z,63.52
2023-04-29T02:29:03.811Z,64.02
2023-04-29T02:31:05.949Z,63.98
2023-04-29T02:33:08.756Z,64.04
2023-04-29T02:35:10.878Z,63.97
2023-04-29T02:37:12.893Z,64.30
2023-04-29T02:39:14.765Z,63.99
2023-04-29T02:41:18.528Z,64.18
2023-04-29T02:43:20.538Z,63.96
2023-04-29T02:45:22.696Z,64.10
2023-04-29T02:47:24.801Z,64.26
2023-04-29T02:49:26.805Z,63.91
2023-04-29T02:51:30.257Z,64.13
2023-04-29T02:53:32.819Z,64.14
2023-04-29T02:55:34.772Z,63.97
2023-04-29T02:57:36.886Z,63.89
2023-04-29T02:59:39.399Z,64.03
2023-04-29T03:01:41.668Z,63.75
2023-04-29T03:03:44.586Z,63.54
2023-04-29T03:05:46.681Z,63.12
2023-04-29T03:07:48.841Z,63.60
2023-04-29T03:09:51.320Z,63.58
2023-04-29T03:11:53.624Z,62.89
2023-04-29T03:13:55.648Z,63.18
2023-04-29T03:15:59.735Z,63.08
2023-04-29T03:18:05.372Z,63.08
2023-04-29T03:20:11.245Z,63.42
2023-04-29T03:22:13.440Z,63.67
2023-04-29T03:24:16.119Z,63.73
2023-04-29T03:26:18.378Z,63.76
2023-04-29T03:28:20.318Z,63.32
2023-04-29T03:30:22.378Z,63.88
2023-04-29T03:32:27.084Z,63.87
2023-04-29T03:34:29.948Z,63.91
2023-04-29T03:36:31.936Z,63.61
2023-04-29T03:38:33.939Z,63.77
2023-04-29T03:40:37.262Z,63.56
2023-04-29T03:42:39.194Z,63.26
2023-04-29T03:44:41.443Z,63.64
2023-04-29T03:46:43.493Z,64.23
2023-04-29T03:48:45.424Z,63.85
2023-04-29T03:50:47.939Z,63.60
2023-04-29T03:52:49.925Z,64.02
2023-04-29T03:54:51.838Z,63.72
2023-04-29T03:56:55.932Z,64.15
2023-04-29T03:58:58.402Z,63.90
2023-04-29T04:01:00.542Z,63.67
2023-04-29T04:03:05.207Z,63.59
2023-04-29T04:05:08.234Z,63.54
2023-04-29T04:07:10.260Z,63.33
2023-04-29T04:09:12.365Z,63.66
2023-04-29T04:11:16.989Z,63.77
2023-04-29T04:13:18.973Z,63.21
2023-04-29T04:15:21.102Z,63.21
2023-04-29T04:17:23.104Z,63.96
2023-04-29T04:19:25.294Z,63.82
2023-04-29T04:21:27.765Z,64.00
2023-04-29T04:23:29.675Z,64.09
2023-04-29T04:25:34.089Z,63.84
2023-04-29T04:27:38.371Z,63.84
2023-04-29T04:29:40.350Z,63.83
2023-04-29T04:31:42.778Z,63.84
2023-04-29T04:33:46.116Z,63.59
2023-04-29T04:35:48.012Z,63.61
2023-04-29T04:37:50.439Z,63.73
2023-04-29T04:39:52.708Z,63.42
2023-04-29T04:41:55.044Z,63.97
2023-04-29T04:43:56.973Z,63.63
2023-04-29T04:45:59.065Z,63.70
2023-04-29T04:48:01.151Z,63.78
2023-04-29T04:50:04.540Z,64.42
2023-04-29T04:52:07.038Z,64.29
2023-04-29T04:54:09.000Z,64.22
2023-04-29T04:56:11.055Z,64.33
2023-04-29T04:58:15.236Z,64.29
2023-04-29T05:00:17.445Z,64.40
2023-04-29T05:02:19.446Z,64.24
2023-04-29T05:04:21.638Z,63.97
2023-04-29T05:06:23.986Z,64.39
2023-04-29T05:08:26.397Z,64.90
2023-04-29T05:10:28.315Z,64.00
2023-04-29T05:12:31.700Z,64.67
2023-04-29T05:14:33.773Z,64.20
2023-04-29T05:16:36.032Z,64.21
2023-04-29T05:18:38.151Z,64.51
2023-04-29T05:20:40.270Z,64.07
2023-04-29T05:22:42.500Z,64.37
2023-04-29T05:24:44.483Z,64.15
2023-04-29T05:26:46.476Z,64.18
2023-04-29T05:28:48.603Z,64.49
2023-04-29T05:30:52.268Z,64.16
2023-04-29T05:32:54.304Z,63.80
2023-04-29T05:34:58.745Z,63.94
2023-04-29T05:37:00.700Z,63.64
2023-04-29T05:39:02.706Z,64.24
2023-04-29T05:41:07.184Z,63.49
2023-04-29T05:43:09.425Z,63.24
2023-04-29T05:45:14.157Z,63.43
2023-04-29T05:47:19.246Z,62.93
2023-04-29T05:49:21.149Z,63.20
2023-04-29T05:51:23.134Z,62.97
2023-04-29T05:53:25.153Z,62.80
2023-04-29T05:55:30.804Z,62.42
2023-04-29T05:57:33.072Z,62.91
2023-04-29T05:59:35.119Z,62.28
2023-04-29T06:01:37.091Z,62.35
2023-04-29T06:03:39.254Z,62.26
2023-04-29T06:05:42.245Z,62.27
2023-04-29T06:07:45.161Z,62.67
2023-04-29T06:09:49.646Z,63.09
2023-04-29T06:11:53.529Z,63.41
2023-04-29T06:13:55.557Z,63.46
2023-04-29T06:15:57.544Z,62.81
2023-04-29T06:17:59.660Z,63.02
2023-04-29T06:20:02.407Z,62.43
2023-04-29T06:22:06.662Z,62.18
2023-04-29T06:24:08.811Z,61.78
2023-04-29T06:26:10.746Z,62.29
2023-04-29T06:28:12.697Z,61.84
2023-04-29T06:30:14.669Z,61.48
2023-04-29T06:32:16.932Z,61.55
2023-04-29T06:34:20.111Z,61.50
2023-04-29T06:36:22.189Z,60.80
2023-04-29T06:38:24.121Z,60.50
2023-04-29T06:40:26.305Z,60.38
2023-04-29T06:42:28.892Z,59.98
2023-04-29T06:44:31.256Z,60.47
2023-04-29T06:46:35.965Z,60.45
2023-04-29T06:48:41.282Z,60.35
2023-04-29T06:50:50.696Z,60.23
2023-04-29T06:52:55.133Z,60.31
2023-04-29T06:54:57.126Z,59.90
2023-04-29T06:56:59.186Z,59.55
2023-04-29T06:59:01.330Z,59.18
2023-04-29T07:01:04.410Z,59.08
2023-04-29T07:03:06.627Z,58.81
2023-04-29T07:05:09.606Z,58.91
2023-04-29T07:07:12.449Z,58.68
2023-04-29T07:09:14.630Z,58.81
2023-04-29T07:11:16.829Z,58.96
2023-04-29T07:13:18.744Z,58.63
2023-04-29T07:15:20.659Z,57.99
2023-04-29T07:17:22.713Z,58.24
2023-04-29T07:19:24.878Z,57.89
2023-04-29T07:21:27.433Z,57.62
2023-04-29T07:23:29.413Z,58.40
2023-04-29T07:25:31.363Z,57.58
2023-04-29T07:27:34.935Z,57.79
2023-04-29T07:29:37.226Z,58.01
2023-04-29T07:31:39.419Z,58.04
2023-04-29T07:33:41.590Z,58.22
2023-04-29T07:35:44.818Z,57.81
2023-04-29T07:37:49.423Z,57.89
2023-04-29T07:39:51.586Z,58.53
2023-04-29T07:41:57.906Z,58.36
2023-04-29T07:44:00.348Z,58.10
2023-04-29T07:46:02.505Z,57.96
2023-04-29T07:48:04.924Z,57.76
2023-04-29T07:50:07.556Z,57.83
2023-04-29T07:52:10.373Z,57.57
2023-04-29T07:54:12.518Z,57.49
2023-04-29T07:56:14.588Z,57.69
2023-04-29T07:58:16.645Z,57.65
2023-04-29T08:00:19.262Z,57.51
2023-04-29T08:02:22.099Z,57.54
2023-04-29T08:04:25.073Z,57.66
2023-04-29T08:06:27.361Z,57.00
2023-04-29T08:08:30.988Z,57.10
2023-04-29T08:10:33.310Z,57.71
2023-04-29T08:12:35.299Z,57.84
2023-04-29T08:14:37.230Z,57.92
2023-04-29T08:16:39.367Z,57.70
2023-04-29T08:18:42.013Z,58.81
2023-04-29T08:20:44.101Z,58.61
2023-04-29T08:22:48.750Z,58.25
2023-04-29T08:24:51.048Z,57.89
2023-04-29T08:26:53.954Z,57.66
2023-04-29T08:28:56.203Z,57.56
2023-04-29T08:30:58.354Z,58.05
2023-04-29T08:33:00.633Z,58.31
2023-04-29T08:35:03.392Z,57.81
2023-04-29T08:37:05.353Z,57.48
2023-04-29T08:39:07.404Z,58.10
2023-04-29T08:41:10.158Z,58.51
2023-04-29T08:43:15.813Z,58.04
2023-04-29T08:45:20.643Z,57.18
2023-04-29T08:47:23.620Z,57.34
2023-04-29T08:49:26.826Z,56.81
2023-04-29T08:51:29.033Z,57.08
2023-04-29T08:53:33.724Z,57.25
2023-04-29T08:55:37.494Z,57.23
2023-04-29T08:57:41.962Z,57.06
2023-04-29T08:59:44.160Z,56.66
2023-04-29T09:01:54.468Z,56.38
2023-04-29T09:04:04.916Z,56.15
2023-04-29T09:06:07.282Z,55.64
2023-04-29T09:08:10.229Z,55.40
2023-04-29T09:10:12.720Z,55.66
2023-04-29T09:12:18.933Z,55.16
2023-04-29T09:14:22.229Z,55.34
2023-04-29T09:16:24.277Z,54.70
2023-04-29T09:18:50.669Z,55.64
2023-04-29T09:20:52.772Z,55.12
2023-04-29T09:22:58.211Z,54.98
2023-04-29T09:25:13.427Z,54.61
2023-04-29T09:27:29.536Z,54.76
2023-04-29T09:29:33.208Z,55.16
2023-04-29T09:31:37.564Z,54.48
2023-04-29T09:33:51.990Z,53.94
2023-04-29T09:35:54.372Z,53.03
2023-04-29T09:38:09.869Z,53.12
2023-04-29T09:40:30.980Z,52.58
2023-04-29T09:42:43.532Z,52.52
2023-04-29T09:44:48.074Z,51.75
2023-04-29T09:47:03.402Z,51.44
2023-04-29T09:49:24.276Z,51.30
2023-04-29T09:51:26.550Z,50.91
2023-04-29T09:53:30.484Z,50.88
2023-04-29T09:55:32.811Z,51.20
2023-04-29T09:57:44.838Z,50.03
2023-04-29T09:59:47.360Z,49.87
2023-04-29T10:01:53.346Z,49.07
2023-04-29T10:03:59.612Z,48.89
2023-04-29T10:06:03.143Z,48.26
2023-04-29T10:08:05.538Z,47.40
2023-04-29T10:10:10.916Z,46.79
2023-04-29T10:12:18.840Z,46.76
2023-04-29T10:14:23.263Z,46.56
2023-04-29T10:16:30.477Z,46.12
2023-04-29T10:18:38.203Z,46.19
2023-04-29T10:20:45.940Z,45.27
2023-04-29T10:22:54.141Z,44.96
2023-04-29T10:25:00.757Z,45.22
2023-04-29T10:27:07.324Z,44.46
2023-04-29T10:29:15.682Z,43.43
2023-04-29T10:31:20.220Z,42.87
2023-04-29T10:33:27.882Z,43.70
2023-04-29T10:35:29.983Z,43.39
2023-04-29T10:37:33.440Z,44.54
2023-04-29T10:39:44.595Z,44.32
2023-04-29T10:41:47.569Z,44.19
2023-04-29T10:43:50.094Z,44.24
2023-04-29T10:46:21.626Z,44.33
2023-04-29T10:48:25.744Z,44.25
2023-04-29T10:50:29.727Z,43.18
2023-04-29T10:52:51.419Z,43.18
2023-04-29T10:55:04.032Z,43.12
2023-04-29T10:57:06.302Z,42.54
2023-04-29T10:59:14.541Z,42.75
2023-04-29T11:01:20.317Z,42.66
2023-04-29T11:03:42.052Z,42.05
2023-04-29T11:05:46.578Z,42.16
2023-04-29T11:07:48.807Z,42.19
2023-04-29T11:09:51.769Z,42.25
2023-04-29T11:11:58.846Z,41.90
2023-04-29T11:14:04.243Z,42.83
2023-04-29T11:16:09.585Z,42.10
2023-04-29T11:18:12.028Z,41.27
2023-04-29T11:20:14.681Z,42.31
2023-04-29T11:22:18.417Z,41.49
2023-04-29T11:24:20.716Z,40.63
2023-04-29T11:26:24.953Z,40.71
2023-04-29T11:28:28.513Z,40.96
2023-04-29T11:30:32.149Z,40.50
2023-04-29T11:32:38.192Z,40.50
2023-04-29T11:34:40.224Z,40.66
2023-04-29T11:36:42.233Z,39.99
2023-04-29T11:38:44.351Z,39.95
2023-04-29T11:40:49.871Z,39.13
2023-04-29T11:42:52.030Z,38.82
2023-04-29T11:44:57.009Z,38.52
2023-04-29T11:47:05.096Z,38.96
2023-04-29T11:49:07.375Z,39.04
2023-04-29T11:51:09.470Z,39.70
2023-04-29T11:53:11.555Z,39.48
2023-04-29T11:55:14.916Z,38.95
2023-04-29T11:57:17.685Z,38.06
2023-04-29T11:59:20.249Z,38.12
2023-04-29T12:01:22.789Z,37.99
2023-04-29T12:03:25.334Z,37.89
2023-04-29T12:05:28.414Z,37.24
2023-04-29T12:07:30.465Z,37.85
2023-04-29T12:09:43.642Z,37.42
2023-04-29T12:11:49.001Z,36.82
2023-04-29T12:13:51.218Z,36.93
2023-04-29T12:15:53.803Z,36.14
2023-04-29T12:17:56.078Z,36.85
2023-04-29T12:19:58.562Z,36.86
2023-04-29T12:22:08.063Z,36.83
2023-04-29T12:24:13.235Z,36.77
2023-04-29T12:26:15.239Z,36.39
2023-04-29T12:28:17.428Z,36.13
2023-04-29T12:30:20.659Z,35.81
2023-04-29T12:32:24.026Z,35.84
2023-04-29T12:34:30.475Z,35.51
2023-04-29T12:36:33.085Z,35.99
2023-04-29T12:38:36.674Z,36.06
2023-04-29T12:40:39.002Z,36.65
2023-04-29T12:42:41.398Z,36.45
2023-04-29T12:44:47.334Z,35.98
2023-04-29T12:46:49.325Z,35.81
2023-04-29T12:48:51.405Z,36.95
2023-04-29T12:50:53.667Z,36.23
2023-04-29T12:52:56.497Z,35.85
2023-04-29T12:55:01.735Z,35.97
2023-04-29T12:57:04.775Z,36.79
2023-04-29T12:59:08.769Z,37.56
2023-04-29T13:01:11.739Z,36.91
2023-04-29T13:03:13.991Z,36.59
2023-04-29T13:05:16.421Z,36.40
2023-04-29T13:07:18.565Z,35.84
2023-04-29T13:09:20.696Z,36.91
2023-04-29T13:11:22.639Z,36.64
2023-04-29T13:13:24.658Z,36.68
2023-04-29T13:15:27.627Z,35.90
2023-04-29T13:17:29.893Z,36.17
2023-04-29T13:19:48.052Z,36.27
2023-04-29T13:22:02.976Z,35.98
2023-04-29T13:24:05.681Z,35.11
2023-04-29T13:26:09.326Z,34.83
2023-04-29T13:28:12.571Z,34.48
2023-04-29T13:30:15.303Z,35.39
2023-04-29T13:32:18.730Z,35.43
2023-04-29T13:34:21.532Z,35.63
2023-04-29T13:36:23.576Z,34.83
2023-04-29T13:38:25.710Z,34.50
2023-04-29T13:40:28.527Z,34.63
2023-04-29T13:42:32.658Z,34.28
2023-04-29T13:44:52.250Z,33.76
2023-04-29T13:46:55.474Z,33.55
2023-04-29T13:49:21.014Z,32.83
2023-04-29T13:53:52.856Z,33.01
2023-04-29T13:58:40.292Z,31.93
2023-04-29T14:00:38.176Z,32.05
2023-04-29T14:02:38.477Z,31.97
2023-04-29T14:04:41.624Z,32.36
2023-04-29T14:06:44.408Z,32.35
2023-04-29T14:08:46.834Z,32.54
2023-04-29T14:10:48.758Z,32.22
2023-04-29T14:12:50.770Z,31.91
2023-04-29T14:14:53.682Z,32.34
2023-04-29T14:16:56.225Z,32.44
2023-04-29T14:18:59.206Z,32.10
2023-04-29T14:21:02.020Z,32.50
2023-04-29T14:23:04.347Z,31.87
2023-04-29T14:25:08.695Z,32.48
2023-04-29T14:27:10.803Z,32.05
2023-04-29T14:29:14.991Z,32.01
2023-04-29T14:31:18.949Z,32.09
2023-04-29T14:33:20.991Z,32.11
2023-04-29T14:35:22.902Z,31.81
2023-04-29T14:37:25.051Z,32.44
2023-04-29T14:39:27.674Z,31.96
2023-04-29T14:41:29.710Z,31.46
2023-04-29T14:43:31.670Z,31.72
2023-04-29T14:45:33.581Z,32.36
2023-04-29T14:47:35.649Z,31.98
2023-04-29T14:49:37.778Z,31.36
2023-04-29T14:51:39.780Z,31.99
2023-04-29T14:53:41.868Z,31.49
2023-04-29T14:55:44.355Z,29.74
2023-04-29T14:57:46.524Z,29.78
2023-04-29T14:59:49.772Z,30.98
2023-04-29T15:01:55.418Z,28.46
2023-04-29T15:03:57.576Z,29.50
2023-04-29T15:06:01.899Z,29.90
2023-04-29T15:08:04.306Z,30.46
2023-04-29T15:10:09.597Z,29.96
2023-04-29T15:12:12.274Z,29.65
2023-04-29T15:14:14.351Z,30.21
2023-04-29T15:16:16.619Z,30.21
2023-04-29T15:18:18.629Z,30.89
2023-04-29T15:20:20.578Z,30.78
2023-04-29T15:22:22.943Z,30.90
2023-04-29T15:24:25.168Z,30.63
2023-04-29T15:26:27.855Z,30.44
2023-04-29T15:28:30.086Z,30.93
2023-04-29T15:30:32.788Z,30.86
2023-04-29T15:32:34.774Z,30.95
2023-04-29T15:34:36.803Z,31.26
2023-04-29T15:36:38.815Z,31.58
2023-04-29T15:38:41.691Z,30.71
2023-04-29T15:40:43.614Z,30.81
2023-04-29T15:42:46.073Z,31.37
2023-04-29T15:44:48.304Z,31.13
2023-04-29T15:46:50.205Z,30.84
2023-04-29T15:48:52.362Z,31.27
2023-04-29T15:50:54.668Z,31.23
2023-04-29T15:52:58.950Z,31.50
2023-04-29T15:55:01.263Z,32.07
2023-04-29T15:57:04.754Z,31.88
2023-04-29T15:59:07.093Z,32.38
2023-04-29T16:01:10.535Z,31.54
2023-04-29T16:03:12.644Z,31.55
2023-04-29T16:05:14.705Z,32.42
2023-04-29T16:07:17.657Z,32.58
2023-04-29T16:09:20.017Z,32.52
2023-04-29T16:11:21.960Z,32.37
2023-04-29T16:13:23.902Z,32.39
2023-04-29T16:15:25.991Z,32.38
2023-04-29T16:17:28.578Z,32.58
2023-04-29T16:19:30.704Z,32.93
2023-04-29T16:21:33.142Z,32.59
2023-04-29T16:23:35.286Z,33.14
2023-04-29T16:25:39.671Z,33.29
2023-04-29T16:27:41.762Z,34.40
2023-04-29T16:29:44.090Z,34.57
2023-04-29T16:31:47.285Z,33.82
2023-04-29T16:33:49.467Z,34.36
2023-04-29T16:35:51.502Z,34.90
2023-04-29T16:37:53.673Z,34.64
2023-04-29T16:39:55.637Z,34.56
2023-04-29T16:41:57.712Z,35.24
2023-04-29T16:43:59.618Z,34.97
2023-04-29T16:46:01.630Z,35.26
2023-04-29T16:48:04.353Z,35.05
2023-04-29T16:50:08.430Z,34.69
2023-04-29T16:52:13.773Z,35.09
2023-04-29T16:54:16.519Z,34.36
2023-04-29T16:56:19.399Z,35.47
2023-04-29T16:58:22.274Z,36.00
2023-04-29T17:00:24.775Z,35.52
2023-04-29T17:02:27.659Z,35.71
2023-04-29T17:04:31.610Z,35.19
2023-04-29T17:06:37.782Z,36.44
2023-04-29T17:08:40.361Z,36.07
2023-04-29T17:10:42.643Z,36.06
2023-04-29T17:12:45.166Z,37.13
2023-04-29T17:14:48.561Z,37.20
2023-04-29T17:16:50.633Z,37.68
2023-04-29T17:18:53.273Z,37.34
2023-04-29T17:20:56.030Z,37.30
2023-04-29T17:23:00.793Z,37.67
2023-04-29T17:25:03.796Z,37.41
2023-04-29T17:27:05.828Z,37.22
2023-04-29T17:29:12.718Z,37.55
2023-04-29T17:31:15.605Z,37.52
2023-04-29T17:33:17.905Z,37.61
2023-04-29T17:35:20.016Z,37.32
2023-04-29T17:37:25.219Z,37.86
2023-04-29T17:39:27.131Z,37.86
2023-04-29T17:41:29.059Z,37.56
2023-04-29T17:43:33.990Z,38.09
2023-04-29T17:45:40.380Z,38.48
2023-04-29T17:47:42.410Z,38.88
2023-04-29T17:49:44.715Z,39.10
2023-04-29T17:51:46.606Z,39.82
2023-04-29T17:53:48.491Z,39.69
2023-04-29T17:55:50.665Z,39.76
2023-04-29T17:57:52.691Z,39.71
2023-04-29T17:59:55.837Z,40.11
2023-04-29T18:01:58.755Z,41.02
2023-04-29T18:04:01.337Z,40.40
2023-04-29T18:06:03.565Z,41.23
2023-04-29T18:08:05.810Z,40.86
2023-04-29T18:10:08.847Z,41.42
2023-04-29T18:12:10.823Z,41.47
2023-04-29T18:14:12.832Z,41.44
2023-04-29T18:16:14.842Z,41.64
2023-04-29T18:18:16.790Z,41.56
2023-04-29T18:20:19.257Z,41.72
2023-04-29T18:22:21.290Z,42.52
2023-04-29T18:24:23.220Z,42.74
2023-04-29T18:26:25.363Z,42.71
2023-04-29T18:28:29.106Z,43.10
2023-04-29T18:30:31.066Z,42.74
2023-04-29T18:32:32.914Z,42.79
2023-04-29T18:34:34.823Z,42.44
2023-04-29T18:36:36.798Z,43.26
2023-04-29T18:38:38.676Z,43.71
2023-04-29T18:40:41.294Z,43.63
2023-04-29T18:42:43.312Z,43.89
2023-04-29T18:44:49.442Z,44.51
2023-04-29T18:46:52.011Z,44.13
2023-04-29T18:48:54.049Z,44.24
2023-04-29T18:50:58.960Z,44.18
2023-04-29T18:53:01.020Z,44.21
2023-04-29T18:55:02.900Z,44.76
2023-04-29T18:57:05.084Z,44.83
2023-04-29T18:59:09.702Z,44.79
2023-04-29T19:01:11.669Z,44.73
2023-04-29T19:03:14.874Z,44.79
2023-04-29T19:05:16.985Z,44.91
2023-04-29T19:07:18.897Z,45.75
2023-04-29T19:09:20.745Z,46.02
2023-04-29T19:11:23.283Z,45.63
2023-04-29T19:13:26.847Z,45.64
2023-04-29T19:15:28.720Z,45.63
2023-04-29T19:17:30.651Z,45.50
2023-04-29T19:19:32.796Z,45.75
2023-04-29T19:21:34.892Z,45.94
2023-04-29T19:23:36.697Z,45.91
2023-04-29T19:25:38.656Z,46.11
2023-04-29T19:27:45.427Z,46.02
2023-04-29T19:29:47.388Z,46.65
2023-04-29T19:31:50.288Z,46.76
2023-04-29T19:33:52.611Z,46.82
2023-04-29T19:35:54.666Z,46.75
2023-04-29T19:37:56.507Z,47.23
2023-04-29T19:39:58.517Z,48.51
2023-04-29T19:42:00.505Z,48.27
2023-04-29T19:44:02.586Z,48.47
2023-04-29T19:46:04.608Z,49.16
2023-04-29T19:48:06.585Z,49.51
2023-04-29T19:50:09.956Z,49.93
2023-04-29T19:52:11.743Z,50.02
2023-04-29T19:54:14.164Z,50.73
2023-04-29T19:56:16.408Z,50.85
2023-04-29T19:58:18.238Z,50.77
2023-04-29T20:00:20.144Z,50.74
2023-04-29T20:02:22.225Z,51.37
2023-04-29T20:04:25.046Z,50.99
2023-04-29T20:06:27.279Z,51.20
2023-04-29T20:08:29.255Z,51.13
2023-04-29T20:10:31.485Z,51.18
2023-04-29T20:12:33.786Z,51.48
2023-04-29T20:14:36.520Z,51.85
2023-04-29T20:16:38.489Z,52.00
2023-04-29T20:18:41.116Z,51.74
2023-04-29T20:20:43.009Z,51.94
2023-04-29T20:22:44.938Z,52.18
2023-04-29T20:24:46.779Z,52.34
2023-04-29T20:26:48.670Z,52.26
2023-04-29T20:28:50.542Z,51.82
2023-04-29T20:30:52.434Z,52.42
2023-04-29T20:32:54.444Z,52.07
2023-04-29T20:34:56.356Z,52.07
2023-04-29T20:36:58.865Z,52.44
2023-04-29T20:39:01.599Z,52.13
2023-04-29T20:41:05.752Z,52.62
2023-04-29T20:43:07.938Z,52.04
2023-04-29T20:45:13.467Z,52.31
2023-04-29T20:47:15.314Z,51.29
2023-04-29T20:49:17.147Z,50.79
2023-04-29T20:51:19.015Z,51.94
2023-04-29T20:53:21.230Z,52.53
2023-04-29T20:55:23.159Z,52.69
2023-04-29T20:57:25.119Z,51.95
2023-04-29T20:59:27.164Z,52.68
2023-04-29T21:01:29.605Z,53.01
2023-04-29T21:03:31.419Z,53.45
2023-04-29T21:05:33.203Z,53.56
2023-04-29T21:07:36.141Z,53.73
2023-04-29T21:09:38.171Z,54.07
2023-04-29T21:11:40.082Z,54.21
2023-04-29T21:13:42.039Z,53.92
2023-04-29T21:15:46.591Z,54.21
2023-04-29T21:17:48.687Z,54.05
2023-04-29T21:19:50.678Z,54.37
2023-04-29T21:21:52.571Z,54.55
2023-04-29T21:23:54.403Z,54.57
2023-04-29T21:25:56.424Z,54.86
2023-04-29T21:27:58.338Z,55.61
2023-04-29T21:30:00.210Z,55.85
2023-04-29T21:32:05.162Z,56.47
2023-04-29T21:34:07.182Z,56.61
2023-04-29T21:36:09.369Z,57.13
2023-04-29T21:38:11.305Z,57.44
2023-04-29T21:40:14.500Z,56.95
2023-04-29T21:42:21.456Z,57.38
2023-04-29T21:44:23.482Z,57.50
2023-04-29T21:46:27.973Z,57.08
2023-04-29T21:48:29.923Z,57.49
2023-04-29T21:50:31.869Z,57.24
2023-04-29T21:52:35.297Z,57.10
2023-04-29T21:54:37.123Z,57.18
2023-04-29T21:56:39.042Z,57.92
2023-04-29T21:58:42.079Z,58.19
2023-04-29T22:00:58.298Z,58.54
2023-04-29T22:03:01.948Z,58.42
2023-04-29T22:05:04.474Z,58.11
2023-04-29T22:07:06.726Z,57.80
2023-04-29T22:09:08.838Z,58.63
2023-04-29T22:11:14.145Z,58.85
2023-04-29T22:13:16.097Z,58.67
2023-04-29T22:15:28.273Z,59.38
2023-04-29T22:17:31.341Z,59.23
2023-04-29T22:19:33.273Z,59.22
2023-04-29T22:21:35.271Z,59.42
2023-04-29T22:23:38.276Z,59.84
2023-04-29T22:25:40.176Z,60.00
2023-04-29T22:27:42.204Z,60.21
2023-04-29T22:29:44.097Z,60.47
2023-04-29T22:31:46.031Z,60.20
2023-04-29T22:33:48.117Z,60.56
2023-04-29T22:35:49.988Z,59.96
2023-04-29T22:37:51.986Z,60.60
2023-04-29T22:39:55.091Z,60.03
2023-04-29T22:41:57.267Z,60.40
2023-04-29T22:43:59.988Z,60.26
2023-04-29T22:46:02.248Z,60.50
2023-04-29T22:48:04.416Z,60.72
2023-04-29T22:50:07.237Z,60.96
2023-04-29T22:52:09.123Z,61.18
2023-04-29T22:54:13.225Z,61.20
2023-04-29T22:56:15.032Z,61.23
2023-04-29T22:58:16.984Z,61.09
2023-04-29T23:00:18.892Z,62.04
2023-04-29T23:02:20.988Z,61.69
2023-04-29T23:04:24.782Z,61.96
2023-04-29T23:06:27.694Z,61.64
2023-04-29T23:08:29.543Z,61.77
2023-04-29T23:10:33.648Z,61.40
2023-04-29T23:12:35.586Z,62.10
2023-04-29T23:14:39.687Z,61.69
2023-04-29T23:16:41.989Z,61.61
2023-04-29T23:18:44.203Z,61.51
2023-04-29T23:20:47.999Z,61.39
2023-04-29T23:22:50.547Z,61.51
2023-04-29T23:24:52.467Z,61.93
2023-04-29T23:26:54.288Z,62.22
2023-04-29T23:28:56.130Z,61.88
2023-04-29T23:31:00.486Z,61.75
2023-04-29T23:33:02.322Z,62.86
2023-04-29T23:35:04.543Z,62.76
2023-04-29T23:37:06.408Z,63.51
2023-04-29T23:39:08.281Z,63.14
2023-04-29T23:41:10.130Z,63.69
2023-04-29T23:43:12.151Z,63.37
2023-04-29T23:45:14.042Z,63.31
2023-04-29T23:47:15.954Z,63.76
2023-04-29T23:49:17.777Z,63.43
2023-04-29T23:51:22.716Z,63.00
2023-04-29T23:53:24.506Z,62.95
2023-04-29T23:55:26.453Z,62.54
2023-04-29T23:57:28.243Z,62.36
2023-04-29T23:59:30.061Z,62.64
